Time;durP1;ratioP1;P1;durP2;ratioP2;P2;SDS_P1;SDS_P2;PMS_P1;PMS_P2;Temp;Humidity;BMP_temperature;BMP_pressure;BME280_temperature;BME280_humidity;BME280_pressure;Samples;Min_cycle;Max_cycle;Signal;HPM_P1;HPM_P2
2022/07/03 00:01:38;;;;;;;164.45;150.52;;;20.70;81.50;;;;;;4994844;28;20220;-85
2022/07/03 00:04:05;;;;;;;160.02;146.38;;;20.60;81.70;;;;;;4994328;28;20051;-84
2022/07/03 00:06:34;;;;;;;156.77;143.20;;;20.60;81.70;;;;;;4994101;28;20181;-84
2022/07/03 00:09:04;;;;;;;165.48;151.15;;;20.60;81.50;;;;;;5009822;28;20141;-83
2022/07/03 00:11:33;;;;;;;161.85;148.10;;;20.60;81.40;;;;;;4993713;28;20109;-84
2022/07/03 00:14:00;;;;;;;154.07;141.20;;;20.50;81.80;;;;;;4993564;28;20047;-84
2022/07/03 00:16:27;;;;;;;155.32;142.18;;;20.50;82.70;;;;;;4976150;28;20058;-85
2022/07/03 00:18:55;;;;;;;157.93;144.27;;;20.40;82.00;;;;;;4977300;28;20078;-84
2022/07/03 00:21:26;;;;;;;159.25;145.65;;;20.40;82.00;;;;;;4977858;28;20055;-84
2022/07/03 00:23:59;;;;;;;158.18;144.77;;;20.40;81.60;;;;;;4977597;28;20054;-84
2022/07/03 00:26:30;;;;;;;152.68;139.48;;;20.30;81.20;;;;;;4978163;28;20130;-85
2022/07/03 00:28:59;;;;;;;160.18;146.38;;;20.30;81.10;;;;;;4977785;28;20051;-85
2022/07/03 00:31:28;;;;;;;161.15;147.32;;;20.30;81.10;;;;;;4994520;28;20055;-84
2022/07/03 00:33:58;;;;;;;155.70;142.40;;;20.20;81.20;;;;;;4977785;28;20149;-84
2022/07/03 00:36:27;;;;;;;156.82;143.30;;;20.20;82.00;;;;;;4977880;28;20130;-85
2022/07/03 00:38:55;;;;;;;155.13;141.80;;;20.20;82.60;;;;;;4993964;28;20587;-85
2022/07/03 00:41:27;;;;;;;157.57;144.23;;;20.10;82.90;;;;;;4994046;28;20074;-85
2022/07/03 00:43:54;;;;;;;158.02;144.57;;;20.10;83.10;;;;;;4976268;28;20051;-84
2022/07/03 00:46:23;;;;;;;159.57;145.85;;;20.00;83.40;;;;;;4958001;28;20087;-85
2022/07/03 00:48:51;;;;;;;155.68;142.48;;;20.00;83.50;;;;;;4974074;28;20063;-84
2022/07/03 00:51:23;;;;;;;162.40;148.57;;;20.00;83.60;;;;;;4956725;28;20043;-84
2022/07/03 00:53:52;;;;;;;166.45;152.15;;;19.90;83.90;;;;;;4956507;28;20049;-84
2022/07/03 00:56:25;;;;;;;165.55;151.05;;;19.90;84.00;;;;;;4972790;28;20062;-84
2022/07/03 00:58:54;;;;;;;164.63;150.43;;;19.90;83.30;;;;;;4972583;28;20524;-85
2022/07/03 01:01:22;;;;;;;156.55;143.02;;;19.90;83.40;;;;;;4974031;28;20054;-84
2022/07/03 01:03:58;;;;;;;158.45;144.85;;;19.80;83.40;;;;;;4958177;28;20079;-85
2022/07/03 01:06:27;;;;;;;156.35;142.60;;;19.80;83.30;;;;;;4958155;28;20051;-85
2022/07/03 01:08:59;;;;;;;158.73;145.02;;;19.70;83.10;;;;;;4958218;28;20585;-85
2022/07/03 01:11:33;;;;;;;159.15;145.45;;;19.70;83.30;;;;;;4958212;28;20486;-86
2022/07/03 01:14:14;;;;;;;160.95;147.00;;;19.70;83.60;;;;;;4973678;28;20054;-84
2022/07/03 01:16:49;;;;;;;162.35;148.30;;;19.70;83.60;;;;;;4973628;28;20074;-85
2022/07/03 01:19:44;;;;;;;163.43;149.10;;;19.60;83.60;;;;;;4957714;28;20051;-84
2022/07/03 01:22:36;;;;;;;169.15;153.93;;;19.60;82.40;;;;;;4957508;28;20047;-83
2022/07/03 01:25:22;;;;;;;157.77;143.90;;;19.50;81.10;;;;;;4955288;28;20055;-84
2022/07/03 01:27:59;;;;;;;163.98;149.65;;;19.50;82.00;;;;;;4973582;28;20126;-84
2022/07/03 01:30:27;;;;;;;164.77;150.07;;;19.40;82.60;;;;;;4973397;28;20047;-85
2022/07/03 01:32:59;;;;;;;165.82;151.25;;;19.40;83.40;;;;;;4973500;28;20058;-85
2022/07/03 01:35:32;;;;;;;163.05;148.77;;;19.40;84.20;;;;;;4973778;28;20518;-85
2022/07/03 01:38:03;;;;;;;170.18;155.32;;;19.40;84.70;;;;;;4973421;28;20106;-85
2022/07/03 01:40:32;;;;;;;160.93;146.93;;;19.30;84.80;;;;;;4973879;28;20055;-85
2022/07/03 01:43:03;;;;;;;168.02;153.02;;;19.30;85.00;;;;;;4958115;28;20126;-84
2022/07/03 01:45:33;;;;;;;168.10;153.38;;;19.20;84.90;;;;;;4973732;28;20114;-84
2022/07/03 01:48:01;;;;;;;177.18;161.45;;;19.20;85.20;;;;;;4974426;28;20170;-85
2022/07/03 01:50:30;;;;;;;166.77;152.00;;;19.10;85.10;;;;;;4993033;28;20086;-84
2022/07/03 01:53:00;;;;;;;167.45;152.50;;;19.10;85.00;;;;;;4976805;28;20046;-85
2022/07/03 01:55:30;;;;;;;167.68;152.95;;;19.10;84.70;;;;;;4992888;28;20088;-85
2022/07/03 01:57:57;;;;;;;170.25;155.43;;;19.00;84.80;;;;;;4976297;28;20047;-84
2022/07/03 02:00:26;;;;;;;164.95;150.27;;;19.00;85.00;;;;;;4993000;28;20057;-87
2022/07/03 02:03:01;;;;;;;163.68;149.15;;;19.00;85.00;;;;;;4976514;28;20057;-84
2022/07/03 02:05:35;;;;;;;165.63;150.90;;;18.90;84.10;;;;;;4992812;28;20555;-85
2022/07/03 02:08:23;;;;;;;;;;;18.90;83.90;;;;;;4993200;28;20526;-85
2022/07/03 02:11:08;;;;;;;155.75;141.55;;;18.90;80.50;;;;;;4988092;28;19965;-84
2022/07/03 02:13:39;;;;;;;161.07;146.65;;;18.80;83.80;;;;;;4992827;28;20149;-85
2022/07/03 02:16:09;;;;;;;159.32;145.23;;;18.80;84.40;;;;;;4992721;28;20061;-85
2022/07/03 02:18:38;;;;;;;162.73;147.77;;;18.80;85.10;;;;;;4992605;28;20059;-84
2022/07/03 02:21:14;;;;;;;163.05;148.52;;;18.70;84.80;;;;;;4992824;28;20071;-84
2022/07/03 02:23:54;;;;;;;161.90;147.63;;;18.70;85.00;;;;;;4976441;28;20141;-85
2022/07/03 02:26:28;;;;;;;162.13;147.77;;;18.70;84.50;;;;;;4976565;28;20054;-84
2022/07/03 02:28:58;;;;;;;;;;;18.60;84.80;;;;;;4996116;28;20058;-86
2022/07/03 02:31:28;;;;;;;155.15;140.65;;;18.50;80.90;;;;;;5008158;28;20005;-85
2022/07/03 02:33:57;;;;;;;158.55;144.15;;;18.50;84.00;;;;;;4976385;28;20059;-84
2022/07/03 02:36:27;;;;;;;156.70;142.73;;;18.50;84.20;;;;;;4992632;28;20059;-85
2022/07/03 02:38:58;;;;;;;160.57;146.20;;;18.50;85.10;;;;;;4976201;28;20142;-84
2022/07/03 02:41:30;;;;;;;158.38;144.20;;;18.50;85.30;;;;;;4992163;28;20051;-84
2022/07/03 02:44:02;;;;;;;161.57;146.98;;;18.40;85.50;;;;;;4999573;28;20055;-84
2022/07/03 02:46:52;;;;;;;158.75;144.30;;;18.40;85.90;;;;;;4976125;28;20114;-85
2022/07/03 02:49:51;;;;;;;158.68;144.48;;;18.40;85.00;;;;;;4976116;28;20134;-85
2022/07/03 02:52:29;;;;;;;160.45;145.65;;;18.30;86.00;;;;;;4975976;28;20465;-85
2022/07/03 02:55:00;;;;;;;156.95;142.63;;;18.20;86.10;;;;;;4976042;28;20055;-85
2022/07/03 02:57:37;;;;;;;162.90;148.30;;;18.10;86.60;;;;;;4975823;28;20062;-84
2022/07/03 03:00:07;;;;;;;162.32;147.63;;;18.00;86.90;;;;;;4975911;28;20055;-85
2022/07/03 03:02:51;;;;;;;158.77;143.98;;;17.90;87.10;;;;;;4975905;28;20055;-84
2022/07/03 03:05:24;;;;;;;157.07;142.40;;;17.80;87.30;;;;;;4976110;28;20684;-85
2022/07/03 03:08:02;;;;;;;158.98;143.98;;;17.70;87.80;;;;;;4975661;28;20426;-85
2022/07/03 03:10:29;;;;;;;156.90;142.10;;;17.70;88.30;;;;;;4976315;28;20110;-84
2022/07/03 03:13:04;;;;;;;157.43;142.52;;;17.60;88.70;;;;;;4959647;28;20055;-84
2022/07/03 03:15:32;;;;;;;158.38;143.35;;;17.50;89.20;;;;;;4976075;28;20050;-84
2022/07/03 03:18:05;;;;;;;155.80;140.90;;;17.50;90.00;;;;;;4976812;28;20051;-85
2022/07/03 03:20:34;;;;;;;156.57;141.68;;;17.50;89.90;;;;;;4959652;28;20504;-84
2022/07/03 03:23:12;;;;;;;156.40;141.68;;;17.40;90.00;;;;;;4975592;28;20051;-84
2022/07/03 03:25:40;;;;;;;157.48;142.48;;;17.40;90.20;;;;;;4975506;28;20061;-84
2022/07/03 03:28:07;;;;;;;158.70;143.68;;;17.40;90.30;;;;;;4975254;28;20390;-85
2022/07/03 03:30:36;;;;;;;158.30;143.52;;;17.40;90.40;;;;;;4959119;28;20055;-85
2022/07/03 03:33:06;;;;;;;158.10;143.20;;;17.40;90.50;;;;;;4975480;28;20134;-84
2022/07/03 03:35:34;;;;;;;157.93;143.30;;;17.40;90.80;;;;;;4975028;28;20498;-85
2022/07/03 03:38:01;;;;;;;156.77;142.07;;;17.30;90.90;;;;;;4958929;28;20135;-84
2022/07/03 03:40:28;;;;;;;157.80;143.20;;;17.30;90.90;;;;;;4975544;28;20055;-84
2022/07/03 03:42:55;;;;;;;157.02;142.43;;;17.40;91.00;;;;;;4975652;28;20059;-84
2022/07/03 03:45:22;;;;;;;156.88;142.27;;;17.30;90.90;;;;;;4959248;28;20062;-83
2022/07/03 03:47:50;;;;;;;158.40;143.65;;;17.30;91.20;;;;;;4975302;28;20122;-85
2022/07/03 03:50:19;;;;;;;161.15;146.13;;;17.30;91.40;;;;;;4975849;28;20054;-84
2022/07/03 03:52:46;;;;;;;159.30;144.50;;;17.30;91.50;;;;;;4975451;28;20078;-85
2022/07/03 03:55:13;;;;;;;160.05;144.90;;;17.30;91.60;;;;;;4974652;28;20137;-84
2022/07/03 03:57:40;;;;;;;159.27;144.27;;;17.20;91.60;;;;;;4959227;28;20142;-85
2022/07/03 04:00:08;;;;;;;157.27;142.48;;;17.20;91.70;;;;;;4975403;28;20067;-84
2022/07/03 04:02:44;;;;;;;157.20;142.43;;;17.30;91.70;;;;;;4975540;28;20212;-85
2022/07/03 04:05:11;;;;;;;156.10;141.70;;;17.20;91.70;;;;;;4958996;28;20055;-84
2022/07/03 04:07:39;;;;;;;154.32;139.68;;;17.30;92.10;;;;;;4976934;28;20063;-84
2022/07/03 04:10:07;;;;;;;158.43;143.63;;;17.30;91.80;;;;;;4975263;28;20115;-84
2022/07/03 04:12:34;;;;;;;151.45;137.10;;;17.30;92.00;;;;;;4975092;28;20055;-85
2022/07/03 04:15:01;;;;;;;153.55;139.05;;;17.30;92.00;;;;;;4975040;28;20054;-84
2022/07/03 04:17:28;;;;;;;156.32;141.73;;;17.30;92.30;;;;;;4974938;28;20069;-84
2022/07/03 04:19:55;;;;;;;157.43;142.73;;;17.30;92.50;;;;;;4958503;28;20138;-85
2022/07/03 04:22:22;;;;;;;158.15;143.13;;;17.20;92.50;;;;;;4975301;28;20051;-84
2022/07/03 04:24:50;;;;;;;156.95;142.18;;;17.20;92.60;;;;;;4958633;28;20047;-84
2022/07/03 04:27:17;;;;;;;159.32;144.40;;;17.10;92.60;;;;;;4975039;28;20092;-84
2022/07/03 04:29:44;;;;;;;157.02;142.32;;;17.10;92.60;;;;;;4974575;28;20154;-85
2022/07/03 04:32:11;;;;;;;159.25;144.05;;;17.10;92.70;;;;;;4958898;28;20059;-84
2022/07/03 04:34:38;;;;;;;157.13;142.52;;;17.00;92.80;;;;;;4958985;28;20494;-84
2022/07/03 04:37:05;;;;;;;157.75;142.93;;;17.00;92.90;;;;;;4974473;28;20565;-84
2022/07/03 04:39:32;;;;;;;154.98;140.27;;;17.00;93.10;;;;;;4974596;28;20082;-84
2022/07/03 04:42:07;;;;;;;155.27;140.57;;;17.00;93.10;;;;;;4992190;28;20398;-85
2022/07/03 04:44:34;;;;;;;153.07;138.63;;;17.00;93.10;;;;;;4974845;28;20661;-84
2022/07/03 04:47:01;;;;;;;159.13;143.82;;;16.90;93.40;;;;;;4958407;28;20085;-84
2022/07/03 04:49:28;;;;;;;153.35;138.88;;;16.90;93.40;;;;;;4974744;28;20806;-84
2022/07/03 04:51:56;;;;;;;155.65;140.82;;;16.90;93.50;;;;;;4974497;28;20057;-85
2022/07/03 04:54:23;;;;;;;156.77;141.52;;;16.90;93.60;;;;;;4977060;28;20055;-83
2022/07/03 04:56:50;;;;;;;153.30;138.57;;;16.90;93.50;;;;;;4994176;28;20134;-84
2022/07/03 04:59:18;;;;;;;155.70;141.00;;;17.00;93.40;;;;;;4993446;28;20053;-84
2022/07/03 05:01:47;;;;;;;154.68;139.98;;;17.00;93.50;;;;;;4977353;28;20055;-84
2022/07/03 05:04:14;;;;;;;160.13;145.00;;;17.00;93.50;;;;;;4993732;28;20062;-84
2022/07/03 05:06:41;;;;;;;155.50;140.65;;;17.00;93.70;;;;;;4976227;28;20055;-84
2022/07/03 05:09:08;;;;;;;153.07;138.48;;;17.00;93.70;;;;;;4993850;28;20141;-84
2022/07/03 05:11:35;;;;;;;155.10;140.18;;;17.10;93.70;;;;;;4993862;28;20055;-83
2022/07/03 05:14:02;;;;;;;155.10;140.48;;;17.00;93.60;;;;;;4993493;28;20051;-82
2022/07/03 05:16:31;;;;;;;154.77;140.07;;;17.10;93.80;;;;;;4993398;28;20077;-82
2022/07/03 05:18:58;;;;;;;154.10;139.43;;;17.10;93.90;;;;;;4977126;28;20078;-83
2022/07/03 05:21:26;;;;;;;159.10;144.00;;;17.10;93.90;;;;;;4993342;28;20138;-83
2022/07/03 05:23:52;;;;;;;159.25;144.43;;;17.10;93.80;;;;;;4977239;28;20057;-83
2022/07/03 05:26:19;;;;;;;157.13;142.20;;;17.10;93.70;;;;;;4993321;28;20520;-83
2022/07/03 05:28:47;;;;;;;159.02;144.02;;;17.10;93.70;;;;;;4973579;28;20058;-82
2022/07/03 05:31:14;;;;;;;157.00;142.13;;;17.10;93.90;;;;;;4973447;28;20061;-83
2022/07/03 05:33:42;;;;;;;157.20;142.50;;;17.10;94.30;;;;;;4974140;28;20494;-82
2022/07/03 05:36:09;;;;;;;160.18;145.02;;;17.20;94.60;;;;;;4973596;28;20059;-83
2022/07/03 05:41:32;;;;;;;157.60;142.60;;;17.20;95.10;;;;;;4936942;28;20078;-83
2022/07/03 05:43:59;;;;;;;159.20;144.23;;;17.20;95.10;;;;;;4947824;28;20089;-82
2022/07/03 05:46:26;;;;;;;155.30;140.63;;;17.20;95.20;;;;;;4973729;28;20051;-83
2022/07/03 05:48:54;;;;;;;159.38;144.25;;;17.30;95.20;;;;;;4972818;28;20131;-82
2022/07/03 05:51:21;;;;;;;155.93;141.23;;;17.30;95.20;;;;;;4973435;28;20055;-82
2022/07/03 05:53:48;;;;;;;152.45;138.35;;;17.30;95.30;;;;;;4973708;28;20157;-83
2022/07/03 05:56:15;;;;;;;152.93;138.70;;;17.40;95.40;;;;;;4973393;28;20057;-83
2022/07/03 05:58:42;;;;;;;155.25;140.85;;;17.40;95.50;;;;;;4957016;28;20051;-82
2022/07/03 06:01:09;;;;;;;159.75;144.63;;;17.40;95.60;;;;;;5000307;28;20062;-83
2022/07/03 06:03:36;;;;;;;154.80;140.20;;;17.50;95.60;;;;;;4976407;28;20141;-82
2022/07/03 06:06:04;;;;;;;153.85;139.45;;;17.60;95.80;;;;;;5009156;28;20130;-83
2022/07/03 06:08:31;;;;;;;154.85;140.18;;;17.60;95.60;;;;;;4992499;28;20050;-83
2022/07/03 06:10:58;;;;;;;153.55;139.18;;;17.70;95.50;;;;;;4992490;28;20050;-83
2022/07/03 06:13:25;;;;;;;153.82;139.57;;;17.70;95.20;;;;;;4976830;28;20137;-82
2022/07/03 06:15:52;;;;;;;151.85;137.65;;;17.80;94.80;;;;;;4976385;28;20141;-83
2022/07/03 06:18:19;;;;;;;155.60;141.10;;;17.90;94.40;;;;;;4994663;28;20050;-83
2022/07/03 06:20:45;;;;;;;153.93;140.00;;;17.90;94.50;;;;;;4979557;28;20054;-83
2022/07/03 06:23:14;;;;;;;157.73;143.32;;;18.00;94.60;;;;;;4979772;28;20141;-83
2022/07/03 06:25:41;;;;;;;154.30;140.30;;;18.00;94.60;;;;;;4995840;28;20141;-83
2022/07/03 06:28:08;;;;;;;155.18;140.77;;;18.10;94.20;;;;;;4995327;28;20086;-84
2022/07/03 06:30:35;;;;;;;149.25;134.68;;;18.20;94.00;;;;;;4995102;28;20058;-84
2022/07/03 06:33:01;;;;;;;152.52;138.13;;;18.20;93.80;;;;;;4993247;28;20051;-83
2022/07/03 06:35:28;;;;;;;148.18;134.07;;;18.30;93.70;;;;;;4960335;28;20130;-83
2022/07/03 06:37:55;;;;;;;151.77;137.50;;;18.30;93.80;;;;;;4976331;28;20150;-83
2022/07/03 06:40:24;;;;;;;149.10;135.18;;;18.40;93.90;;;;;;4959850;28;20147;-83
2022/07/03 06:42:51;;;;;;;152.32;137.70;;;18.40;93.50;;;;;;4976495;28;20150;-83
2022/07/03 06:45:17;;;;;;;151.15;136.75;;;18.50;93.40;;;;;;4976196;28;20604;-83
2022/07/03 06:47:44;;;;;;;153.63;139.13;;;18.50;93.40;;;;;;4960273;28;20047;-83
2022/07/03 06:50:12;;;;;;;152.55;138.10;;;18.50;93.70;;;;;;4959986;28;20134;-83
2022/07/03 06:52:39;;;;;;;153.52;138.93;;;18.60;93.50;;;;;;4976065;28;20051;-82
2022/07/03 06:55:07;;;;;;;148.50;134.55;;;18.70;93.10;;;;;;4992779;28;20055;-83
2022/07/03 06:57:35;;;;;;;147.73;133.68;;;18.70;93.20;;;;;;4977989;28;20126;-82
2022/07/03 07:00:02;;;;;;;145.45;131.65;;;18.80;93.60;;;;;;4959594;28;20408;-82
2022/07/03 07:02:29;;;;;;;151.38;137.18;;;18.90;93.70;;;;;;4959733;28;20055;-82
2022/07/03 07:04:56;;;;;;;158.50;143.90;;;18.90;93.50;;;;;;4959210;28;21006;-82
2022/07/03 07:07:22;;;;;;;150.52;136.52;;;19.00;93.30;;;;;;4985690;28;20050;-83
2022/07/03 07:09:49;;;;;;;154.95;140.45;;;19.10;93.70;;;;;;4995165;28;20138;-83
2022/07/03 07:12:16;;;;;;;151.13;137.23;;;19.10;93.50;;;;;;4995357;28;20055;-83
2022/07/03 07:14:45;;;;;;;150.35;136.15;;;19.20;93.40;;;;;;5011548;28;20059;-83
2022/07/03 07:17:12;;;;;;;155.20;140.98;;;19.30;92.90;;;;;;4978484;28;20055;-83
2022/07/03 07:19:39;;;;;;;155.48;141.18;;;19.30;92.90;;;;;;4995145;28;20109;-83
2022/07/03 07:22:05;;;;;;;155.32;140.73;;;19.40;93.30;;;;;;4978729;28;20157;-82
2022/07/03 07:24:32;;;;;;;153.65;139.40;;;19.40;93.30;;;;;;4994735;28;20413;-83
2022/07/03 07:26:59;;;;;;;153.63;139.40;;;19.50;92.70;;;;;;4977537;28;20077;-83
2022/07/03 07:29:26;;;;;;;154.30;139.93;;;19.60;92.40;;;;;;4992740;28;20057;-82
2022/07/03 07:31:55;;;;;;;156.60;142.50;;;19.60;92.30;;;;;;4994308;28;20055;-84
2022/07/03 07:34:22;;;;;;;157.75;143.45;;;19.60;92.00;;;;;;4980242;28;20130;-83
2022/07/03 07:36:49;;;;;;;158.93;144.50;;;19.60;92.00;;;;;;4992943;28;20495;-80
2022/07/03 07:39:16;;;;;;;154.60;140.63;;;19.70;92.40;;;;;;4994114;28;20050;-80
2022/07/03 07:41:43;;;;;;;156.80;142.43;;;19.70;92.00;;;;;;4935410;28;20054;-80
2022/07/03 07:44:10;;;;;;;160.43;145.88;;;19.70;91.90;;;;;;4994496;28;20146;-81
2022/07/03 07:46:37;;;;;;;156.52;142.43;;;19.80;91.60;;;;;;4994814;28;20054;-80
2022/07/03 07:49:05;;;;;;;155.88;141.95;;;19.80;91.70;;;;;;4994827;28;20161;-82
2022/07/03 07:51:32;;;;;;;159.93;145.48;;;19.90;91.80;;;;;;4994090;28;20051;-82
2022/07/03 07:54:00;;;;;;;157.13;143.23;;;19.90;91.40;;;;;;4993487;28;20051;-84
2022/07/03 07:56:27;;;;;;;159.88;145.20;;;19.90;91.50;;;;;;4993593;28;20057;-82
2022/07/03 07:58:54;;;;;;;160.73;146.20;;;19.90;91.60;;;;;;4993442;28;20062;-83
2022/07/03 08:06:52;;;;;;;161.15;146.50;;;20.10;92.40;;;;;;4993489;28;20834;-86
2022/07/03 08:09:18;;;;;;;159.23;144.68;;;20.10;92.40;;;;;;4993517;28;20145;-83
2022/07/03 08:11:46;;;;;;;158.18;143.88;;;20.20;92.20;;;;;;4978248;28;20142;-89
2022/07/03 08:14:20;;;;;;;160.60;145.40;;;20.20;91.90;;;;;;4995825;28;20078;-90
2022/07/03 08:16:49;;;;;;;155.57;141.35;;;20.20;91.50;;;;;;4996817;28;20043;-91
2022/07/03 08:19:18;;;;;;;154.48;140.27;;;20.30;91.10;;;;;;4993907;28;20494;-84
2022/07/03 08:21:44;;;;;;;156.25;142.43;;;20.20;90.90;;;;;;4973027;28;20139;-82
2022/07/03 08:24:12;;;;;;;155.75;142.05;;;20.30;91.20;;;;;;4990782;28;20061;-83
2022/07/03 08:26:39;;;;;;;158.25;144.57;;;20.30;90.60;;;;;;4991159;28;20057;-82
2022/07/03 08:29:06;;;;;;;164.32;149.93;;;20.30;90.40;;;;;;4991344;28;20141;-83
2022/07/03 08:31:33;;;;;;;161.00;146.70;;;20.30;89.80;;;;;;4974785;28;20051;-83
2022/07/03 08:34:00;;;;;;;164.68;150.15;;;20.30;89.80;;;;;;4992230;28;20059;-84
2022/07/03 08:36:28;;;;;;;160.75;146.75;;;20.30;89.60;;;;;;4991452;28;20536;-81
2022/07/03 08:38:56;;;;;;;162.23;147.82;;;20.30;90.10;;;;;;4993377;28;20106;-83
2022/07/03 08:41:24;;;;;;;165.70;150.98;;;20.30;90.60;;;;;;4976970;28;20066;-82
2022/07/03 08:43:54;;;;;;;158.90;144.50;;;20.40;90.50;;;;;;4993541;28;20051;-83
2022/07/03 08:46:21;;;;;;;162.85;148.13;;;20.40;90.50;;;;;;4993388;28;20050;-84
2022/07/03 08:48:50;;;;;;;166.13;151.40;;;20.50;89.70;;;;;;4975450;28;20497;-83
2022/07/03 08:51:20;;;;;;;159.43;145.27;;;20.50;88.40;;;;;;4992715;28;20051;-84
2022/07/03 08:53:49;;;;;;;157.07;142.95;;;20.40;89.30;;;;;;4994735;28;20121;-85
2022/07/03 08:56:16;;;;;;;158.88;144.25;;;20.50;89.60;;;;;;4993132;28;20437;-84
2022/07/03 08:58:44;;;;;;;162.63;148.40;;;20.50;88.90;;;;;;4992895;28;20051;-85
2022/07/03 09:01:14;;;;;;;161.48;147.18;;;20.50;88.00;;;;;;5009562;28;20079;-85
2022/07/03 09:03:41;;;;;;;164.50;149.70;;;20.50;88.40;;;;;;4993510;28;20090;-81
2022/07/03 09:06:08;;;;;;;161.98;147.27;;;20.50;88.00;;;;;;4992542;28;20126;-81
2022/07/03 09:08:37;;;;;;;164.20;149.95;;;20.60;87.60;;;;;;4992298;28;20055;-83
2022/07/03 09:11:06;;;;;;;173.27;158.50;;;20.60;86.70;;;;;;4975697;28;20106;-83
2022/07/03 09:13:33;;;;;;;164.23;150.25;;;20.60;87.00;;;;;;4993938;28;20489;-90
2022/07/03 09:16:00;;;;;;;162.38;148.25;;;20.70;86.30;;;;;;4978502;28;21371;-92
2022/07/03 09:18:39;;;;;;;161.73;147.40;;;20.70;86.40;;;;;;4980263;28;20053;-91
2022/07/03 09:21:08;;;;;;;168.07;153.82;;;20.70;86.50;;;;;;4973099;28;20055;-93
2022/07/03 09:27:29;;;;;;;159.98;145.77;;;20.80;85.00;;;;;;4987830;28;20050;-89
2022/07/03 09:30:00;;;;;;;165.80;151.45;;;20.90;82.90;;;;;;4996114;28;20113;-89
2022/07/03 09:32:31;;;;;;;166.43;152.23;;;20.90;81.70;;;;;;4995950;28;20572;-87
2022/07/03 09:35:19;;;;;;;167.43;153.13;;;21.00;81.50;;;;;;4979567;28;20047;-91
2022/07/03 09:37:50;;;;;;;159.40;145.00;;;21.00;79.30;;;;;;4995352;28;20081;-88
2022/07/03 09:40:18;;;;;;;160.48;146.38;;;21.10;78.30;;;;;;4977287;28;20883;-85
2022/07/03 09:43:05;;;;;;;163.55;149.10;;;21.10;76.40;;;;;;4978376;28;20138;-91
2022/07/03 09:45:51;;;;;;;162.32;148.23;;;21.20;74.50;;;;;;4978383;28;20110;-84
2022/07/03 09:48:30;;;;;;;163.65;149.43;;;21.30;74.80;;;;;;4976761;28;20055;-82
2022/07/03 09:51:26;;;;;;;157.88;144.20;;;21.40;73.70;;;;;;4992484;28;20086;-85
2022/07/03 09:53:55;;;;;;;165.20;151.25;;;21.40;74.40;;;;;;4980721;28;20323;-85
2022/07/03 09:56:24;;;;;;;165.15;151.30;;;21.40;74.50;;;;;;4979441;28;20158;-84
2022/07/03 09:59:04;;;;;;;169.52;155.18;;;21.40;75.90;;;;;;4972060;28;20134;-85
2022/07/03 10:01:31;;;;;;;176.15;160.88;;;21.50;75.90;;;;;;4971863;28;21035;-85
2022/07/03 10:04:11;;;;;;;168.85;154.57;;;21.50;75.50;;;;;;4972303;28;20060;-84
2022/07/03 10:06:53;;;;;;;161.57;147.25;;;21.50;74.30;;;;;;4971728;28;20051;-85
2022/07/03 10:09:21;;;;;;;174.32;159.70;;;21.50;74.90;;;;;;4973339;28;20081;-84
2022/07/03 10:11:48;;;;;;;163.55;150.02;;;21.50;75.00;;;;;;4973338;28;20070;-84
2022/07/03 10:14:19;;;;;;;162.73;149.10;;;21.60;75.10;;;;;;4973445;28;20135;-84
2022/07/03 10:16:46;;;;;;;164.15;150.75;;;21.70;71.30;;;;;;4973491;28;20141;-84
2022/07/03 10:19:15;;;;;;;165.00;151.57;;;21.70;71.60;;;;;;4973036;28;20083;-84
2022/07/03 10:21:44;;;;;;;156.95;143.55;;;21.80;71.10;;;;;;4973182;28;20435;-81
2022/07/03 10:24:13;;;;;;;158.27;145.07;;;21.80;70.90;;;;;;4973373;28;20055;-83
2022/07/03 10:26:42;;;;;;;167.65;153.88;;;21.80;70.40;;;;;;4972750;28;20047;-84
2022/07/03 10:29:15;;;;;;;168.82;154.93;;;21.90;71.10;;;;;;4973166;28;20086;-85
2022/07/03 10:31:47;;;;;;;166.32;152.57;;;21.90;71.60;;;;;;4973314;28;21082;-85
2022/07/03 10:34:18;;;;;;;174.40;160.38;;;21.80;74.40;;;;;;4973007;28;20047;-85
2022/07/03 10:36:48;;;;;;;174.48;160.40;;;21.90;72.60;;;;;;4972535;28;20610;-84
2022/07/03 10:39:24;;;;;;;167.38;153.60;;;21.90;72.80;;;;;;4972896;28;20059;-84
2022/07/03 10:45:03;;;;;;;164.30;150.77;;;22.00;71.10;;;;;;4972554;28;20059;-84
2022/07/03 10:47:48;;;;;;;165.55;151.95;;;22.00;71.00;;;;;;4972533;28;20052;-84
2022/07/03 10:50:16;;;;;;;164.70;150.93;;;22.10;69.80;;;;;;4973019;28;20047;-85
2022/07/03 10:52:44;;;;;;;166.57;153.13;;;22.10;69.20;;;;;;4972906;28;20048;-85
2022/07/03 10:55:12;;;;;;;164.00;150.63;;;22.10;69.60;;;;;;4957051;28;20056;-85
2022/07/03 10:57:40;;;;;;;160.60;147.20;;;22.10;69.50;;;;;;4972576;28;20106;-85
2022/07/03 11:00:14;;;;;;;166.90;153.35;;;22.20;68.90;;;;;;4972761;28;20047;-85
2022/07/03 11:02:42;;;;;;;167.77;154.25;;;22.20;68.40;;;;;;4976186;28;20138;-85
2022/07/03 11:05:25;;;;;;;169.50;155.95;;;22.20;67.80;;;;;;4995523;28;20500;-85
2022/07/03 11:08:14;;;;;;;172.10;158.50;;;22.20;69.60;;;;;;5011117;28;20251;-83
2022/07/03 11:10:43;;;;;;;166.27;152.88;;;22.30;67.80;;;;;;4988131;28;20074;-85
2022/07/03 11:13:21;;;;;;;173.25;159.23;;;22.30;69.50;;;;;;4977845;28;20051;-84
2022/07/03 11:15:51;;;;;;;174.63;160.70;;;22.30;69.70;;;;;;4975792;28;20062;-84
2022/07/03 11:18:27;;;;;;;177.75;163.65;;;22.40;68.40;;;;;;4959374;28;20055;-84
2022/07/03 11:21:30;;;;;;;170.60;156.90;;;22.50;67.50;;;;;;4975839;28;21006;-84
2022/07/03 11:24:21;;;;;;;171.32;157.57;;;22.50;68.10;;;;;;4976075;28;20518;-84
2022/07/03 11:27:07;;;;;;;166.48;152.63;;;22.50;68.90;;;;;;4960065;28;20061;-84
2022/07/03 11:29:37;;;;;;;168.80;154.98;;;22.50;68.40;;;;;;4975128;28;20115;-85
2022/07/03 11:32:38;;;;;;;176.65;162.88;;;22.60;68.20;;;;;;4960814;28;20616;-85
2022/07/03 11:35:05;;;;;;;170.38;156.73;;;22.60;69.00;;;;;;4959387;28;20079;-85
2022/07/03 11:37:32;;;;;;;177.07;163.23;;;22.70;69.40;;;;;;4986741;28;20055;-84
2022/07/03 11:40:04;;;;;;;164.98;151.38;;;22.80;68.90;;;;;;4995625;28;20639;-85
2022/07/03 11:42:34;;;;;;;164.07;150.68;;;22.80;67.70;;;;;;4994993;28;20051;-84
2022/07/03 11:45:02;;;;;;;179.88;165.85;;;22.90;68.10;;;;;;4978978;28;20082;-85
2022/07/03 11:47:29;;;;;;;161.75;148.05;;;22.80;69.50;;;;;;4994582;28;20130;-84
2022/07/03 11:49:56;;;;;;;170.93;157.02;;;22.90;70.40;;;;;;4978885;28;20134;-85
2022/07/03 11:52:33;;;;;;;162.07;148.48;;;22.90;70.80;;;;;;4978381;28;20134;-84
2022/07/03 11:55:01;;;;;;;160.25;146.50;;;22.80;70.80;;;;;;4994902;28;20058;-84
2022/07/03 11:57:28;;;;;;;159.82;146.25;;;22.80;71.20;;;;;;4994465;28;20497;-85
2022/07/03 12:00:05;;;;;;;177.65;163.85;;;22.70;70.80;;;;;;4978480;28;20067;-85
2022/07/03 12:02:49;;;;;;;169.18;155.50;;;22.60;72.00;;;;;;4994657;28;20595;-84
2022/07/03 12:05:16;;;;;;;160.15;146.43;;;22.70;73.00;;;;;;4994268;28;20055;-84
2022/07/03 12:07:43;;;;;;;163.88;149.88;;;22.70;71.90;;;;;;4978171;28;20492;-86
2022/07/03 12:10:11;;;;;;;164.52;150.73;;;22.60;72.30;;;;;;4991269;28;20141;-84
2022/07/03 12:12:38;;;;;;;182.63;168.20;;;22.60;73.00;;;;;;4974978;28;20138;-85
2022/07/03 12:15:06;;;;;;;165.52;151.82;;;22.60;72.90;;;;;;4958695;28;20061;-84
2022/07/03 12:17:33;;;;;;;164.25;150.63;;;22.60;73.60;;;;;;4975064;28;20482;-85
2022/07/03 12:20:01;;;;;;;166.63;152.82;;;22.60;72.50;;;;;;4958742;28;20059;-85
2022/07/03 12:22:30;;;;;;;163.25;149.52;;;22.70;71.70;;;;;;4975078;28;20078;-86
2022/07/03 12:25:00;;;;;;;166.95;153.25;;;22.70;71.30;;;;;;4974881;28;20066;-85
2022/07/03 12:27:30;;;;;;;163.48;149.85;;;22.60;70.50;;;;;;4974883;28;20074;-85
2022/07/03 12:29:57;;;;;;;162.88;149.18;;;22.50;70.20;;;;;;4974634;28;20644;-85
2022/07/03 12:32:25;;;;;;;164.57;150.68;;;22.50;70.70;;;;;;4974870;28;20055;-86
2022/07/03 12:34:52;;;;;;;162.65;149.00;;;22.50;70.20;;;;;;4975316;28;20851;-85
2022/07/03 12:37:32;;;;;;;168.40;154.60;;;22.40;70.10;;;;;;4974745;28;20143;-85
2022/07/03 12:39:59;;;;;;;165.35;151.70;;;22.40;71.50;;;;;;4974774;28;20051;-85